Terminal Aerodrome Forecast
Issued by NWS

Home | Current Version | Previous Version | Text Only | Print | Product List | Glossary On
Versions: 1 2 3 4 5 6 7 8 9 10 11 12 13 14 15 16 17 18 19 20 21 22 23 24 25 26
000
FTUS45 KBOU 232056 AAA
TAFAPA
TAF AMD
KAPA 232056Z 2321/2418 36010G18KT P6SM FEW060 BKN080 BKN110
     FM240200 01010KT P6SM SCT080
     FM240400 VRB05KT P6SM SCT120
     FM240600 19007KT P6SM FEW120 SCT200
     FM241700 25008KT P6SM FEW080 SCT120=

USA.gov is the U.S. government's official web portal to all federal, state and local government web resources and services.